• Join FlightAware (Why Join?)
  • Login
  • US Flag 
02:49PM EDT


 

Airport Tracker/Info


-or-


 

Live Flight TrackerFlight Track Log ✈ LBQ792 ✈ 03-May-2013 ✈ KAGC - KIAD

Flight Track Log - Related Links

Times and Time Zones

All times are in EDT time to prevent confusion due to time zone crossing. See the LBQ792 flight status page for this flight to view local times or setup timezone preferences in your user account.

Time Position Orientation Groundspeed Altitude Reporting Facility
EDT Latitude Longitude Course Direction KTS MPH feet Rate Location/Type
12:33AM 40.2986 -79.9025 172° South 138 159 4,700  Level Cleveland Center
12:34AM 40.2589 -79.9003 178° South 138 159 6,200 1,500 Climbing Cleveland Center
12:35AM 40.2194 -79.8953 174° South 143 165 7,700 1,380 Climbing Cleveland Center
12:37AM 40.1733 -79.8903 175° South 155 178 9,100 1,320 Climbing Cleveland Center
12:37AM 40.1275 -79.8908 181° South 162 186 10,400 1,260 Climbing Cleveland Center
12:38AM 39.9774 -79.8879 173° South  Level FlightAware Approximate
12:38AM 40.0775 -79.8858 176° South 173 199 11,600  Level Cleveland Center
12:39AM 40.0439 -79.8400 134° Southeast 166 191 12,800 1,200 Climbing Cleveland Center
12:40AM 40.0186 -79.7833 120° Southeast 166 191 14,000 1,020 Climbing Cleveland Center
12:41AM 39.9911 -79.7242 121° Southeast 178 205 14,900 540 Climbing Cleveland Center
12:42AM 39.9592 -79.6567 122° Southeast 199 229 15,100 60 Climbing Cleveland Center
12:43AM 39.9253 -79.5814 120° Southeast 219 252 15,100  Level Cleveland Center
12:44AM 39.8911 -79.5089 122° Southeast 232 267 15,100  Level Cleveland Center
12:45AM 39.8572 -79.4336 120° Southeast 232 267 15,100  Level Cleveland Center
12:47AM 39.8178 -79.3439 120° Southeast 230 265 15,100 -120 Level Washington Center
12:48AM 39.7847 -79.2667 119° Southeast 235 270 14,900 -120 Descending Washington Center
12:49AM 39.7517 -79.1892 119° Southeast 235 270 14,900  Level Washington Center
12:50AM 39.7164 -79.1147 122° Southeast 235 270 14,900  Level Washington Center
12:51AM 39.6833 -79.0375 119° Southeast 235 270 14,900  Level Washington Center
12:52AM 39.6519 -78.9606 118° Southeast 235 270 14,900  Level Washington Center
12:53AM 39.6067 -78.8694 123° Southeast 251 289 15,000  Climbing Washington Center
12:54AM 39.5733 -78.7925 119° Southeast 251 289 15,000 -300 Level Washington Center
12:55AM 39.5378 -78.7156 121° Southeast 251 289 14,500 -840 Descending Washington Center
12:56AM 39.5003 -78.6333 121° Southeast 261 300 13,400 -1,080 Descending Washington Center
12:57AM 39.4650 -78.5486 118° Southeast 261 300 12,400 -1,020 Descending Washington Center
12:58AM 39.4314 -78.4639 117° Southeast 266 306 11,400 -1,020 Descending Washington Center
12:59AM 39.4003 -78.3794 115° Southeast 266 306 10,400 -1,020 Descending Washington Center
01:00AM 39.3772 -78.2925 109° East 260 299 9,400 -960 Descending Washington Center
01:01AM 39.3519 -78.2083 111° Southeast 260 299 8,500 -960 Descending Washington Center
01:02AM 39.3286 -78.1272 110° East 248 285 7,500 -1,020 Descending Washington Center
01:03AM 39.3053 -78.0486 111° Southeast 248 285 6,500 -1,020 Descending Washington Center
01:04AM 39.2839 -77.9672 109° East 243 280 5,500 -780 Descending Washington Center
01:05AM 39.2644 -77.8917 108° East 232 267 5,000 -180 Descending Washington Center
01:07AM 39.2333 -77.7500 106° East 207 238 5,000 -180 Level Potomac TRACON
01:08AM 39.2000 -77.6833 123° Southeast 211 243 4,600 -540 Descending Potomac TRACON
01:08AM 39.1667 -77.6333 131° Southeast 225 259 4,100 -600 Descending Potomac TRACON
01:09AM 39.1333 -77.6000 142° Southeast 228 262 3,700 -660 Descending Potomac TRACON
01:10AM 39.0833 -77.5500 142° Southeast 219 252 2,900 -840 Descending Potomac TRACON
01:11AM 39.0333 -77.5000 142° Southeast 222 255 2,100 -960 Descending Potomac TRACON
01:12AM 39.0000 -77.4667 142° Southeast 204 235 1,000 -1,140 Descending Potomac TRACON
01:14AM 38.9474 -77.4599 151° Southeast  Level Estimated
01:21AM 38.9474 -77.4599 151° Southeast  Level Estimated
01:22AM 38.9474 -77.4599 151° Southeast  Level Estimated
01:23AM 38.9474 -77.4599 151° Southeast  Level Estimated
01:24AM 38.9474 -77.4599 151° Southeast  Level Estimated